sensor_id;sensor_type;location;lat;lon;timestamp;pressure;altitude;pressure_sealevel;temperature;humidity
41898;BME280;27576;53.366;-1.498;2022-10-28T00:01:17;99733.88;;;13.64;100.00
41898;BME280;27576;53.366;-1.498;2022-10-28T00:03:45;99733.84;;;13.66;100.00
41898;BME280;27576;53.366;-1.498;2022-10-28T00:06:17;99721.72;;;13.65;100.00
41898;BME280;27576;53.366;-1.498;2022-10-28T00:08:43;99711.31;;;13.63;100.00
41898;BME280;27576;53.366;-1.498;2022-10-28T00:11:17;99669.09;;;13.35;100.00
41898;BME280;27576;53.366;-1.498;2022-10-28T00:13:44;99718.28;;;13.61;100.00
41898;BME280;27576;53.366;-1.498;2022-10-28T00:16:30;99711.31;;;13.65;100.00
41898;BME280;27576;53.366;-1.498;2022-10-28T00:19:00;99659.53;;;13.37;100.00
41898;BME280;27576;53.366;-1.498;2022-10-28T00:21:28;99651.72;;;13.36;100.00
41898;BME280;27576;53.366;-1.498;2022-10-28T00:23:56;99706.03;;;13.69;100.00
41898;BME280;27576;53.366;-1.498;2022-10-28T00:26:25;99660.28;;;13.47;100.00
41898;BME280;27576;53.366;-1.498;2022-10-28T00:28:53;99710.22;;;13.83;100.00
41898;BME280;27576;53.366;-1.498;2022-10-28T00:31:23;99706.69;;;13.88;100.00
41898;BME280;27576;53.366;-1.498;2022-10-28T00:48:31;99692.50;;;14.11;100.00
41898;BME280;27576;53.366;-1.498;2022-10-28T01:52:45;99644.31;;;14.42;100.00
41898;BME280;27576;53.366;-1.498;2022-10-28T01:56:48;99634.66;;;14.49;100.00
41898;BME280;27576;53.366;-1.498;2022-10-28T02:00:43;99647.63;;;14.55;100.00
41898;BME280;27576;53.366;-1.498;2022-10-28T02:04:13;99644.97;;;14.58;100.00
41898;BME280;27576;53.366;-1.498;2022-10-28T02:35:50;99618.13;;;14.50;100.00
41898;BME280;27576;53.366;-1.498;2022-10-28T02:39:32;99612.88;;;14.55;100.00
41898;BME280;27576;53.366;-1.498;2022-10-28T02:43:15;99618.13;;;14.52;100.00
41898;BME280;27576;53.366;-1.498;2022-10-28T02:46:50;99600.78;;;14.49;100.00
41898;BME280;27576;53.366;-1.498;2022-10-28T03:01:06;99591.53;;;14.28;100.00
41898;BME280;27576;53.366;-1.498;2022-10-28T03:04:48;99582.03;;;14.24;100.00
41898;BME280;27576;53.366;-1.498;2022-10-28T03:26:13;99521.38;;;14.14;100.00
41898;BME280;27576;53.366;-1.498;2022-10-28T03:33:18;99523.16;;;14.12;100.00
41898;BME280;27576;53.366;-1.498;2022-10-28T03:36:59;99503.22;;;14.11;100.00
41898;BME280;27576;53.366;-1.498;2022-10-28T03:44:09;99454.16;;;13.84;100.00
41898;BME280;27576;53.366;-1.498;2022-10-28T03:50:44;99479.88;;;14.04;100.00
41898;BME280;27576;53.366;-1.498;2022-10-28T03:58:15;99482.38;;;14.11;100.00
41898;BME280;27576;53.366;-1.498;2022-10-28T04:05:49;99457.31;;;14.03;100.00
41898;BME280;27576;53.366;-1.498;2022-10-28T04:09:23;99442.78;;;13.89;100.00
41898;BME280;27576;53.366;-1.498;2022-10-28T04:16:08;99436.75;;;13.87;100.00
41898;BME280;27576;53.366;-1.498;2022-10-28T04:19:26;99435.94;;;13.82;100.00
41898;BME280;27576;53.366;-1.498;2022-10-28T04:23:13;99427.41;;;13.72;100.00
41898;BME280;27576;53.366;-1.498;2022-10-28T04:26:57;99436.06;;;13.74;100.00
41898;BME280;27576;53.366;-1.498;2022-10-28T04:37:51;99387.84;;;13.50;100.00
41898;BME280;27576;53.366;-1.498;2022-10-28T04:41:21;99415.34;;;13.68;100.00
41898;BME280;27576;53.366;-1.498;2022-10-28T04:48:54;99392.09;;;13.55;100.00
41898;BME280;27576;53.366;-1.498;2022-10-28T04:52:27;99410.13;;;13.67;100.00
41898;BME280;27576;53.366;-1.498;2022-10-28T04:56:17;99417.09;;;13.66;100.00
41898;BME280;27576;53.366;-1.498;2022-10-28T04:59:59;99374.03;;;13.44;100.00
41898;BME280;27576;53.366;-1.498;2022-10-28T05:03:24;99420.53;;;13.68;100.00
41898;BME280;27576;53.366;-1.498;2022-10-28T05:21:43;99388.41;;;13.69;100.00
41898;BME280;27576;53.366;-1.498;2022-10-28T05:39:05;99373.69;;;13.68;100.00
41898;BME280;27576;53.366;-1.498;2022-10-28T05:53:44;99375.34;;;13.72;100.00
41898;BME280;27576;53.366;-1.498;2022-10-28T06:00:54;99377.91;;;13.74;100.00
41898;BME280;27576;53.366;-1.498;2022-10-28T06:08:01;99368.34;;;13.74;100.00
41898;BME280;27576;53.366;-1.498;2022-10-28T06:39:34;99368.31;;;13.78;100.00
41898;BME280;27576;53.366;-1.498;2022-10-28T06:42:38;99288.25;;;13.41;100.00
41898;BME280;27576;53.366;-1.498;2022-10-28T06:45:04;99338.91;;;13.71;100.00
41898;BME280;27576;53.366;-1.498;2022-10-28T06:47:29;99332.84;;;13.70;100.00
41898;BME280;27576;53.366;-1.498;2022-10-28T06:49:55;99306.00;;;13.68;100.00
41898;BME280;27576;53.366;-1.498;2022-10-28T06:52:20;99249.13;;;13.44;100.00
41898;BME280;27576;53.366;-1.498;2022-10-28T06:54:45;99306.00;;;13.68;100.00
41898;BME280;27576;53.366;-1.498;2022-10-28T06:57:11;99215.75;;;13.18;100.00
41898;BME280;27576;53.366;-1.498;2022-10-28T06:59:36;99342.19;;;13.84;100.00
41898;BME280;27576;53.366;-1.498;2022-10-28T07:02:02;99303.25;;;13.74;100.00
41898;BME280;27576;53.366;-1.498;2022-10-28T07:04:27;99322.16;;;13.87;100.00
41898;BME280;27576;53.366;-1.498;2022-10-28T07:06:54;99225.00;;;13.36;100.00
41898;BME280;27576;53.366;-1.498;2022-10-28T07:09:20;99311.56;;;13.95;100.00
41898;BME280;27576;53.366;-1.498;2022-10-28T07:11:49;99273.81;;;13.72;100.00
41898;BME280;27576;53.366;-1.498;2022-10-28T07:14:14;99213.59;;;13.44;100.00
41898;BME280;27576;53.366;-1.498;2022-10-28T07:16:40;99179.81;;;13.40;100.00
41898;BME280;27576;53.366;-1.498;2022-10-28T07:19:06;99175.78;;;13.25;100.00
41898;BME280;27576;53.366;-1.498;2022-10-28T07:21:32;99227.75;;;13.74;100.00
41898;BME280;27576;53.366;-1.498;2022-10-28T07:23:58;99246.44;;;13.96;100.00
41898;BME280;27576;53.366;-1.498;2022-10-28T07:26:24;99267.91;;;14.09;100.00
41898;BME280;27576;53.366;-1.498;2022-10-28T07:28:49;99273.00;;;14.14;100.00
41898;BME280;27576;53.366;-1.498;2022-10-28T07:31:15;99287.34;;;14.36;100.00
41898;BME280;27576;53.366;-1.498;2022-10-28T07:33:40;99222.31;;;13.87;100.00
41898;BME280;27576;53.366;-1.498;2022-10-28T07:36:06;99302.75;;;14.47;100.00
41898;BME280;27576;53.366;-1.498;2022-10-28T07:38:32;99300.03;;;14.53;100.00
41898;BME280;27576;53.366;-1.498;2022-10-28T07:41:02;99291.31;;;14.56;100.00
41898;BME280;27576;53.366;-1.498;2022-10-28T07:43:28;99315.50;;;14.62;100.00
41898;BME280;27576;53.366;-1.498;2022-10-28T07:45:56;99311.03;;;14.67;100.00
41898;BME280;27576;53.366;-1.498;2022-10-28T07:48:22;99310.91;;;14.73;100.00
41898;BME280;27576;53.366;-1.498;2022-10-28T07:50:48;99324.72;;;14.79;100.00
41898;BME280;27576;53.366;-1.498;2022-10-28T07:53:13;99250.72;;;14.42;100.00
41898;BME280;27576;53.366;-1.498;2022-10-28T07:55:39;99280.72;;;14.62;100.00
41898;BME280;27576;53.366;-1.498;2022-10-28T07:58:04;99324.56;;;14.85;100.00
41898;BME280;27576;53.366;-1.498;2022-10-28T08:00:30;99267.09;;;14.51;100.00
41898;BME280;27576;53.366;-1.498;2022-10-28T08:02:55;99310.72;;;14.81;100.00
41898;BME280;27576;53.366;-1.498;2022-10-28T08:05:20;99295.63;;;14.57;100.00
41898;BME280;27576;53.366;-1.498;2022-10-28T08:07:46;99358.09;;;15.03;100.00
41898;BME280;27576;53.366;-1.498;2022-10-28T08:10:12;99260.94;;;14.53;100.00
41898;BME280;27576;53.366;-1.498;2022-10-28T08:12:37;99307.75;;;14.59;100.00
41898;BME280;27576;53.366;-1.498;2022-10-28T08:15:03;99321.22;;;14.80;100.00
41898;BME280;27576;53.366;-1.498;2022-10-28T08:17:29;99344.72;;;14.78;100.00
41898;BME280;27576;53.366;-1.498;2022-10-28T08:19:55;99319.13;;;14.54;100.00
41898;BME280;27576;53.366;-1.498;2022-10-28T08:22:20;99335.75;;;14.48;100.00
41898;BME280;27576;53.366;-1.498;2022-10-28T08:24:46;99374.09;;;14.86;100.00
41898;BME280;27576;53.366;-1.498;2022-10-28T08:27:12;99410.31;;;15.02;100.00
41898;BME280;27576;53.366;-1.498;2022-10-28T08:29:37;99431.78;;;15.14;100.00
41898;BME280;27576;53.366;-1.498;2022-10-28T08:32:03;99334.81;;;14.52;100.00
41898;BME280;27576;53.366;-1.498;2022-10-28T08:34:28;99299.50;;;14.36;100.00
41898;BME280;27576;53.366;-1.498;2022-10-28T08:36:55;99429.09;;;15.17;100.00
41898;BME280;27576;53.366;-1.498;2022-10-28T08:39:20;99428.47;;;15.06;100.00
41898;BME280;27576;53.366;-1.498;2022-10-28T08:41:50;99332.41;;;14.41;100.00
41898;BME280;27576;53.366;-1.498;2022-10-28T08:47:28;99475.13;;;15.20;100.00
41898;BME280;27576;53.366;-1.498;2022-10-28T08:50:21;99468.41;;;15.10;100.00
41898;BME280;27576;53.366;-1.498;2022-10-28T08:52:54;99445.22;;;14.94;100.00
41898;BME280;27576;53.366;-1.498;2022-10-28T08:55:29;99425.53;;;14.80;100.00
41898;BME280;27576;53.366;-1.498;2022-10-28T08:58:15;99357.66;;;14.39;100.00
41898;BME280;27576;53.366;-1.498;2022-10-28T09:00:45;99403.25;;;14.63;100.00
41898;BME280;27576;53.366;-1.498;2022-10-28T09:03:37;99367.28;;;14.36;100.00
41898;BME280;27576;53.366;-1.498;2022-10-28T09:06:07;99490.28;;;15.01;100.00
41898;BME280;27576;53.366;-1.498;2022-10-28T09:08:41;99506.69;;;15.09;100.00
41898;BME280;27576;53.366;-1.498;2022-10-28T09:17:31;99522.44;;;15.03;100.00
41898;BME280;27576;53.366;-1.498;2022-10-28T09:22:42;99538.91;;;15.07;100.00
41898;BME280;27576;53.366;-1.498;2022-10-28T09:36:20;99551.53;;;14.83;100.00
41898;BME280;27576;53.366;-1.498;2022-10-28T09:38:50;99476.69;;;14.39;100.00
41898;BME280;27576;53.366;-1.498;2022-10-28T09:41:20;99583.50;;;14.93;100.00
41898;BME280;27576;53.366;-1.498;2022-10-28T09:46:42;99607.06;;;14.88;100.00
41898;BME280;27576;53.366;-1.498;2022-10-28T09:49:11;99614.06;;;14.86;100.00
41898;BME280;27576;53.366;-1.498;2022-10-28T09:54:11;99607.38;;;14.71;100.00
41898;BME280;27576;53.366;-1.498;2022-10-28T09:56:37;99546.97;;;14.43;100.00
41898;BME280;27576;53.366;-1.498;2022-10-28T09:59:09;99616.66;;;14.88;100.00
41898;BME280;27576;53.366;-1.498;2022-10-28T10:01:38;99624.41;;;14.91;100.00
41898;BME280;27576;53.366;-1.498;2022-10-28T10:04:23;99580.56;;;14.62;100.00
41898;BME280;27576;53.366;-1.498;2022-10-28T10:07:10;99644.41;;;14.92;100.00
41898;BME280;27576;53.366;-1.498;2022-10-28T10:09:37;99613.31;;;14.80;100.00
41898;BME280;27576;53.366;-1.498;2022-10-28T10:12:07;99644.31;;;14.96;100.00
41898;BME280;27576;53.366;-1.498;2022-10-28T10:14:43;99522.31;;;14.12;100.00
41898;BME280;27576;53.366;-1.498;2022-10-28T10:17:20;99609.97;;;14.71;98.90
41898;BME280;27576;53.366;-1.498;2022-10-28T10:22:30;99678.09;;;15.06;97.30
41898;BME280;27576;53.366;-1.498;2022-10-28T10:24:55;99646.19;;;14.90;97.07
41898;BME280;27576;53.366;-1.498;2022-10-28T10:27:21;99688.44;;;15.10;96.23
41898;BME280;27576;53.366;-1.498;2022-10-28T10:29:49;99687.56;;;15.11;92.27
41898;BME280;27576;53.366;-1.498;2022-10-28T10:34:50;99692.94;;;15.02;90.73
41898;BME280;27576;53.366;-1.498;2022-10-28T10:37:19;99708.72;;;14.94;86.53
41898;BME280;27576;53.366;-1.498;2022-10-28T10:39:57;99735.41;;;15.10;85.86
41898;BME280;27576;53.366;-1.498;2022-10-28T10:42:24;99673.56;;;14.63;87.39
41898;BME280;27576;53.366;-1.498;2022-10-28T10:45:15;99750.13;;;15.14;86.67
41898;BME280;27576;53.366;-1.498;2022-10-28T10:47:42;99739.97;;;14.97;88.66
41898;BME280;27576;53.366;-1.498;2022-10-28T10:50:26;99759.72;;;15.12;86.75
41898;BME280;27576;53.366;-1.498;2022-10-28T10:52:57;99722.69;;;14.89;88.74
41898;BME280;27576;53.366;-1.498;2022-10-28T10:55:38;99721.72;;;14.97;88.73
41898;BME280;27576;53.366;-1.498;2022-10-28T10:58:06;99619.13;;;14.40;87.78
41898;BME280;27576;53.366;-1.498;2022-10-28T11:00:48;99669.94;;;14.71;83.57
41898;BME280;27576;53.366;-1.498;2022-10-28T11:03:27;99701.78;;;14.92;84.54
41898;BME280;27576;53.366;-1.498;2022-10-28T11:05:56;99763.16;;;15.16;81.86
41898;BME280;27576;53.366;-1.498;2022-10-28T11:11:08;99784.16;;;15.08;82.42
41898;BME280;27576;53.366;-1.498;2022-10-28T11:13:36;99728.03;;;14.81;83.45
41898;BME280;27576;53.366;-1.498;2022-10-28T11:16:22;99803.09;;;15.21;83.05
41898;BME280;27576;53.366;-1.498;2022-10-28T11:18:52;99802.22;;;15.20;83.64
41898;BME280;27576;53.366;-1.498;2022-10-28T11:26:37;99779.47;;;15.29;85.80
41898;BME280;27576;53.366;-1.498;2022-10-28T11:29:23;99805.19;;;15.53;83.88
41898;BME280;27576;53.366;-1.498;2022-10-28T11:43:17;99826.44;;;18.17;71.10
41898;BME280;27576;53.366;-1.498;2022-10-28T11:56:31;99822.94;;;19.33;61.15
41898;BME280;27576;53.366;-1.498;2022-10-28T12:08:22;99830.03;;;20.59;59.87
41898;BME280;27576;53.366;-1.498;2022-10-28T12:11:08;99852.81;;;21.28;52.87
41898;BME280;27576;53.366;-1.498;2022-10-28T12:20:58;99835.50;;;22.46;51.60
41898;BME280;27576;53.366;-1.498;2022-10-28T12:23:27;99859.00;;;22.13;51.15
41898;BME280;27576;53.366;-1.498;2022-10-28T12:25:55;99859.88;;;21.71;49.33
41898;BME280;27576;53.366;-1.498;2022-10-28T12:28:29;99873.03;;;21.27;47.81
41898;BME280;27576;53.366;-1.498;2022-10-28T12:30:57;99867.84;;;21.02;52.56
41898;BME280;27576;53.366;-1.498;2022-10-28T12:33:33;99887.13;;;21.04;52.48
41898;BME280;27576;53.366;-1.498;2022-10-28T12:41:43;99896.63;;;20.37;54.51
41898;BME280;27576;53.366;-1.498;2022-10-28T12:44:14;99894.16;;;20.57;59.42
41898;BME280;27576;53.366;-1.498;2022-10-28T12:46:55;99903.97;;;20.77;58.30
41898;BME280;27576;53.366;-1.498;2022-10-28T12:52:30;99926.38;;;20.14;59.22
41898;BME280;27576;53.366;-1.498;2022-10-28T12:55:02;99915.91;;;19.85;59.02
41898;BME280;27576;53.366;-1.498;2022-10-28T12:57:33;99928.50;;;20.27;58.20
41898;BME280;27576;53.366;-1.498;2022-10-28T13:00:15;99917.59;;;20.65;55.44
41898;BME280;27576;53.366;-1.498;2022-10-28T13:02:54;99930.19;;;21.03;56.56
41898;BME280;27576;53.366;-1.498;2022-10-28T13:05:26;99920.31;;;21.08;56.71
41898;BME280;27576;53.366;-1.498;2022-10-28T13:08:04;99943.56;;;21.21;55.77
41898;BME280;27576;53.366;-1.498;2022-10-28T13:10:44;99923.88;;;21.07;57.26
41898;BME280;27576;53.366;-1.498;2022-10-28T13:19:22;99947.75;;;20.79;49.43
41898;BME280;27576;53.366;-1.498;2022-10-28T13:22:15;99942.31;;;21.31;52.07
41898;BME280;27576;53.366;-1.498;2022-10-28T13:25:01;99931.28;;;21.87;50.31
41898;BME280;27576;53.366;-1.498;2022-10-28T13:27:32;99937.16;;;22.57;52.24
41898;BME280;27576;53.366;-1.498;2022-10-28T13:29:58;99944.25;;;23.33;51.20
41898;BME280;27576;53.366;-1.498;2022-10-28T13:32:40;99943.63;;;23.66;43.95
41898;BME280;27576;53.366;-1.498;2022-10-28T13:35:21;99953.75;;;23.92;44.30
41898;BME280;27576;53.366;-1.498;2022-10-28T13:37:50;99929.09;;;23.92;45.92
41898;BME280;27576;53.366;-1.498;2022-10-28T13:43:54;99939.41;;;24.33;45.19
41898;BME280;27576;53.366;-1.498;2022-10-28T13:46:05;99929.91;;;24.46;45.37
41898;BME280;27576;53.366;-1.498;2022-10-28T13:48:44;99950.91;;;24.32;44.41
41898;BME280;27576;53.366;-1.498;2022-10-28T13:57:03;99968.03;;;24.59;43.41
41898;BME280;27576;53.366;-1.498;2022-10-28T13:59:24;99983.09;;;24.59;44.87
41898;BME280;27576;53.366;-1.498;2022-10-28T14:01:53;99981.34;;;24.06;43.41
41898;BME280;27576;53.366;-1.498;2022-10-28T14:04:29;99973.97;;;23.76;42.70
41898;BME280;27576;53.366;-1.498;2022-10-28T14:09:29;99981.06;;;23.19;43.50
41898;BME280;27576;53.366;-1.498;2022-10-28T14:12:15;99987.06;;;23.41;41.93
41898;BME280;27576;53.366;-1.498;2022-10-28T14:15:04;99989.09;;;23.74;41.90
41898;BME280;27576;53.366;-1.498;2022-10-28T14:20:32;99991.84;;;24.94;40.78
41898;BME280;27576;53.366;-1.498;2022-10-28T14:23:00;99976.22;;;25.05;41.66
41898;BME280;27576;53.366;-1.498;2022-10-28T14:33:31;99990.31;;;22.49;43.30
41898;BME280;27576;53.366;-1.498;2022-10-28T14:39:11;100010.72;;;21.11;46.37
41898;BME280;27576;53.366;-1.498;2022-10-28T14:49:40;100009.78;;;18.93;51.99
41898;BME280;27576;53.366;-1.498;2022-10-28T14:52:15;100015.81;;;18.62;53.98
41898;BME280;27576;53.366;-1.498;2022-10-28T14:57:12;100022.75;;;18.32;54.56
41898;BME280;27576;53.366;-1.498;2022-10-28T14:59:44;100010.94;;;18.14;55.77
41898;BME280;27576;53.366;-1.498;2022-10-28T15:02:19;100030.25;;;18.10;56.63
41898;BME280;27576;53.366;-1.498;2022-10-28T15:04:47;100027.94;;;17.98;57.10
41898;BME280;27576;53.366;-1.498;2022-10-28T15:07:21;100023.72;;;17.91;57.26
41898;BME280;27576;53.366;-1.498;2022-10-28T15:09:48;100037.00;;;17.85;57.50
41898;BME280;27576;53.366;-1.498;2022-10-28T15:12:18;100030.84;;;17.86;59.77
41898;BME280;27576;53.366;-1.498;2022-10-28T15:14:48;100015.38;;;17.74;58.93
41898;BME280;27576;53.366;-1.498;2022-10-28T15:17:25;100016.56;;;17.59;59.46
41898;BME280;27576;53.366;-1.498;2022-10-28T15:19:56;100021.22;;;17.46;59.60
41898;BME280;27576;53.366;-1.498;2022-10-28T15:22:39;100011.00;;;17.34;61.13
41898;BME280;27576;53.366;-1.498;2022-10-28T15:25:12;100031.91;;;17.35;60.20
41898;BME280;27576;53.366;-1.498;2022-10-28T15:27:41;99989.84;;;17.01;60.69
41898;BME280;27576;53.366;-1.498;2022-10-28T15:30:19;100037.56;;;17.15;61.83
41898;BME280;27576;53.366;-1.498;2022-10-28T15:32:51;100042.84;;;17.12;62.27
41898;BME280;27576;53.366;-1.498;2022-10-28T15:37:58;100042.03;;;17.10;63.43
41898;BME280;27576;53.366;-1.498;2022-10-28T15:40:27;100042.91;;;17.09;63.36
41898;BME280;27576;53.366;-1.498;2022-10-28T15:45:29;100054.38;;;17.04;64.45
41898;BME280;27576;53.366;-1.498;2022-10-28T15:47:57;100044.81;;;17.01;65.70
41898;BME280;27576;53.366;-1.498;2022-10-28T15:50:25;100046.63;;;16.99;68.91
41898;BME280;27576;53.366;-1.498;2022-10-28T15:53:20;100040.63;;;16.94;69.95
41898;BME280;27576;53.366;-1.498;2022-10-28T15:56:06;100042.56;;;16.83;69.75
41898;BME280;27576;53.366;-1.498;2022-10-28T15:58:37;100021.94;;;16.64;68.06
41898;BME280;27576;53.366;-1.498;2022-10-28T16:04:07;100023.13;;;16.47;68.45
41898;BME280;27576;53.366;-1.498;2022-10-28T16:06:55;100048.22;;;16.57;69.42
41898;BME280;27576;53.366;-1.498;2022-10-28T16:11:49;100062.41;;;16.43;69.43
41898;BME280;27576;53.366;-1.498;2022-10-28T16:14:29;100057.31;;;16.36;69.97
41898;BME280;27576;53.366;-1.498;2022-10-28T16:17:03;100051.34;;;16.28;70.29
41898;BME280;27576;53.366;-1.498;2022-10-28T16:19:35;100051.53;;;16.14;71.50
41898;BME280;27576;53.366;-1.498;2022-10-28T16:22:02;100055.88;;;16.16;72.57
41898;BME280;27576;53.366;-1.498;2022-10-28T16:24:28;100055.16;;;16.05;74.50
41898;BME280;27576;53.366;-1.498;2022-10-28T16:27:10;100069.13;;;16.04;76.93
41898;BME280;27576;53.366;-1.498;2022-10-28T16:29:38;100061.38;;;15.98;77.03
41898;BME280;27576;53.366;-1.498;2022-10-28T16:32:04;100064.19;;;15.84;74.81
41898;BME280;27576;53.366;-1.498;2022-10-28T16:34:29;100051.38;;;15.64;75.88
41898;BME280;27576;53.366;-1.498;2022-10-28T16:36:55;100077.50;;;15.64;77.55
41898;BME280;27576;53.366;-1.498;2022-10-28T16:39:20;100080.22;;;15.57;78.73
41898;BME280;27576;53.366;-1.498;2022-10-28T16:41:45;100063.84;;;15.42;78.68
41898;BME280;27576;53.366;-1.498;2022-10-28T16:44:16;100083.00;;;15.41;78.75
41898;BME280;27576;53.366;-1.498;2022-10-28T16:46:42;100097.00;;;15.36;79.48
41898;BME280;27576;53.366;-1.498;2022-10-28T16:49:07;100061.63;;;15.09;79.78
41898;BME280;27576;53.366;-1.498;2022-10-28T16:51:33;100073.81;;;15.08;80.49
41898;BME280;27576;53.366;-1.498;2022-10-28T16:53:58;100086.84;;;15.08;79.78
41898;BME280;27576;53.366;-1.498;2022-10-28T16:56:25;100105.09;;;15.11;81.05
41898;BME280;27576;53.366;-1.498;2022-10-28T16:58:50;100072.41;;;14.75;80.64
41898;BME280;27576;53.366;-1.498;2022-10-28T17:01:18;100076.75;;;14.78;80.89
41898;BME280;27576;53.366;-1.498;2022-10-28T17:03:45;100098.44;;;14.80;80.59
41898;BME280;27576;53.366;-1.498;2022-10-28T17:06:10;100095.94;;;14.70;81.34
41898;BME280;27576;53.366;-1.498;2022-10-28T17:08:35;100089.94;;;14.62;82.47
41898;BME280;27576;53.366;-1.498;2022-10-28T17:11:01;100093.44;;;14.58;81.59
41898;BME280;27576;53.366;-1.498;2022-10-28T17:13:27;100101.31;;;14.49;81.71
41898;BME280;27576;53.366;-1.498;2022-10-28T17:15:52;100096.09;;;14.47;81.83
41898;BME280;27576;53.366;-1.498;2022-10-28T17:18:18;100107.41;;;14.45;82.45
41898;BME280;27576;53.366;-1.498;2022-10-28T17:20:45;100119.56;;;14.49;82.99
41898;BME280;27576;53.366;-1.498;2022-10-28T17:23:10;100124.78;;;14.46;83.18
41898;BME280;27576;53.366;-1.498;2022-10-28T17:25:36;100138.69;;;14.45;83.38
41898;BME280;27576;53.366;-1.498;2022-10-28T17:28:01;100073.88;;;13.99;83.78
41898;BME280;27576;53.366;-1.498;2022-10-28T17:30:27;100092.94;;;14.07;84.08
41898;BME280;27576;53.366;-1.498;2022-10-28T17:32:53;100125.00;;;14.17;84.40
41898;BME280;27576;53.366;-1.498;2022-10-28T17:35:22;100145.75;;;14.31;84.51
41898;BME280;27576;53.366;-1.498;2022-10-28T17:37:48;100146.66;;;14.27;85.63
41898;BME280;27576;53.366;-1.498;2022-10-28T17:40:13;100153.63;;;14.20;85.82
41898;BME280;27576;53.366;-1.498;2022-10-28T17:42:39;100118.16;;;13.99;86.33
41898;BME280;27576;53.366;-1.498;2022-10-28T17:45:05;100103.44;;;13.92;86.88
41898;BME280;27576;53.366;-1.498;2022-10-28T17:47:32;100138.91;;;14.10;86.72
41898;BME280;27576;53.366;-1.498;2022-10-28T17:49:57;100115.56;;;13.93;87.78
41898;BME280;27576;53.366;-1.498;2022-10-28T17:52:24;100112.97;;;13.90;87.54
41898;BME280;27576;53.366;-1.498;2022-10-28T17:54:50;100106.94;;;13.88;88.60
41898;BME280;27576;53.366;-1.498;2022-10-28T17:57:15;100096.56;;;13.74;90.07
41898;BME280;27576;53.366;-1.498;2022-10-28T17:59:40;100134.66;;;13.95;89.23
41898;BME280;27576;53.366;-1.498;2022-10-28T18:02:10;100139.91;;;13.90;89.48
41898;BME280;27576;53.366;-1.498;2022-10-28T18:04:39;100128.69;;;13.78;90.63
41898;BME280;27576;53.366;-1.498;2022-10-28T18:07:05;100141.69;;;13.81;90.58
41898;BME280;27576;53.366;-1.498;2022-10-28T18:09:30;100107.06;;;13.59;90.64
41898;BME280;27576;53.366;-1.498;2022-10-28T18:11:57;100114.88;;;13.57;91.07
41898;BME280;27576;53.366;-1.498;2022-10-28T18:14:23;100139.16;;;13.62;90.87
41898;BME280;27576;53.366;-1.498;2022-10-28T18:16:49;100142.66;;;13.55;90.57
41898;BME280;27576;53.366;-1.498;2022-10-28T18:19:15;100154.81;;;13.50;90.70
41898;BME280;27576;53.366;-1.498;2022-10-28T18:21:40;100186.03;;;13.62;90.73
41898;BME280;27576;53.366;-1.498;2022-10-28T18:24:07;100179.13;;;13.47;90.62
41898;BME280;27576;53.366;-1.498;2022-10-28T18:26:35;100189.53;;;13.54;91.12
41898;BME280;27576;53.366;-1.498;2022-10-28T18:29:01;100186.06;;;13.48;91.64
41898;BME280;27576;53.366;-1.498;2022-10-28T18:31:32;100202.56;;;13.43;91.59
41898;BME280;27576;53.366;-1.498;2022-10-28T18:33:59;100192.16;;;13.41;91.79
41898;BME280;27576;53.366;-1.498;2022-10-28T18:36:26;100193.03;;;13.39;91.85
41898;BME280;27576;53.366;-1.498;2022-10-28T18:38:53;100172.22;;;13.23;91.65
41898;BME280;27576;53.366;-1.498;2022-10-28T18:41:24;100181.75;;;13.32;92.18
41898;BME280;27576;53.366;-1.498;2022-10-28T18:43:57;100131.50;;;13.01;92.33
41898;BME280;27576;53.366;-1.498;2022-10-28T18:46:23;100170.50;;;13.25;92.27
41898;BME280;27576;53.366;-1.498;2022-10-28T18:48:49;100159.22;;;13.11;92.28
41898;BME280;27576;53.366;-1.498;2022-10-28T18:51:15;100194.81;;;13.24;93.74
41898;BME280;27576;53.366;-1.498;2022-10-28T18:53:43;100202.59;;;13.23;94.06
41898;BME280;27576;53.366;-1.498;2022-10-28T18:56:11;100203.44;;;13.17;93.72
41898;BME280;27576;53.366;-1.498;2022-10-28T18:58:37;100192.19;;;13.06;93.39
41898;BME280;27576;53.366;-1.498;2022-10-28T19:03:29;100161.84;;;12.90;94.11
41898;BME280;27576;53.366;-1.498;2022-10-28T19:05:59;100167.91;;;12.89;94.33
41898;BME280;27576;53.366;-1.498;2022-10-28T19:08:25;100169.63;;;12.88;94.34
41898;BME280;27576;53.366;-1.498;2022-10-28T19:10:54;100205.19;;;13.03;95.15
41898;BME280;27576;53.366;-1.498;2022-10-28T19:13:19;100208.66;;;12.96;97.01
41898;BME280;27576;53.366;-1.498;2022-10-28T19:15:45;100223.41;;;12.97;96.04
41898;BME280;27576;53.366;-1.498;2022-10-28T19:18:11;100202.56;;;12.85;96.33
41898;BME280;27576;53.366;-1.498;2022-10-28T19:20:36;100218.19;;;12.95;97.08
41898;BME280;27576;53.366;-1.498;2022-10-28T19:23:02;100217.31;;;12.89;97.23
41898;BME280;27576;53.366;-1.498;2022-10-28T19:25:27;100226.84;;;12.87;96.76
41898;BME280;27576;53.366;-1.498;2022-10-28T19:27:52;100199.97;;;12.72;97.14
41898;BME280;27576;53.366;-1.498;2022-10-28T19:30:18;100194.75;;;12.65;98.27
41898;BME280;27576;53.366;-1.498;2022-10-28T19:32:43;100203.41;;;12.56;98.33
41898;BME280;27576;53.366;-1.498;2022-10-28T19:35:08;100199.97;;;12.51;98.16
41898;BME280;27576;53.366;-1.498;2022-10-28T19:37:34;100199.97;;;12.54;99.12
41898;BME280;27576;53.366;-1.498;2022-10-28T19:39:59;100207.75;;;12.51;99.66
41898;BME280;27576;53.366;-1.498;2022-10-28T19:42:24;100221.63;;;12.56;99.47
41898;BME280;27576;53.366;-1.498;2022-10-28T19:44:50;100211.22;;;12.50;99.89
41898;BME280;27576;53.366;-1.498;2022-10-28T19:47:15;100215.56;;;12.54;100.00
41898;BME280;27576;53.366;-1.498;2022-10-28T19:49:41;100209.50;;;12.46;100.00
41898;BME280;27576;53.366;-1.498;2022-10-28T19:52:06;100212.94;;;12.52;100.00
41898;BME280;27576;53.366;-1.498;2022-10-28T19:54:31;100227.69;;;12.58;100.00
41898;BME280;27576;53.366;-1.498;2022-10-28T19:56:57;100196.47;;;12.37;100.00
41898;BME280;27576;53.366;-1.498;2022-10-28T19:59:22;100216.38;;;12.41;100.00